sensor_id;sensor_type;location;lat;lon;timestamp;P1;durP1;ratioP1;P2;durP2;ratioP2
63110;SDS011;49201;53.426;10.300;2023-05-07T00:00:20;16.47;;;12.63;;
63110;SDS011;49201;53.426;10.300;2023-05-07T00:02:46;14.57;;;12.90;;
63110;SDS011;49201;53.426;10.300;2023-05-07T00:05:11;14.83;;;12.83;;
63110;SDS011;49201;53.426;10.300;2023-05-07T00:07:37;15.17;;;11.90;;
63110;SDS011;49201;53.426;10.300;2023-05-07T00:10:03;12.47;;;10.97;;
63110;SDS011;49201;53.426;10.300;2023-05-07T00:12:29;13.33;;;11.53;;
63110;SDS011;49201;53.426;10.300;2023-05-07T00:14:59;13.40;;;10.77;;
63110;SDS011;49201;53.426;10.300;2023-05-07T00:17:25;13.77;;;12.10;;
63110;SDS011;49201;53.426;10.300;2023-05-07T00:19:51;14.87;;;12.43;;
63110;SDS011;49201;53.426;10.300;2023-05-07T00:22:16;11.73;;;10.47;;
63110;SDS011;49201;53.426;10.300;2023-05-07T00:24:42;12.83;;;10.80;;
63110;SDS011;49201;53.426;10.300;2023-05-07T00:27:08;13.07;;;11.33;;
63110;SDS011;49201;53.426;10.300;2023-05-07T00:29:33;13.83;;;11.47;;
63110;SDS011;49201;53.426;10.300;2023-05-07T00:31:59;14.60;;;11.40;;
63110;SDS011;49201;53.426;10.300;2023-05-07T00:34:24;15.30;;;12.13;;
63110;SDS011;49201;53.426;10.300;2023-05-07T00:36:50;14.77;;;11.63;;
63110;SDS011;49201;53.426;10.300;2023-05-07T00:39:15;14.60;;;12.40;;
63110;SDS011;49201;53.426;10.300;2023-05-07T00:41:41;15.40;;;12.40;;
63110;SDS011;49201;53.426;10.300;2023-05-07T00:44:06;12.80;;;10.37;;
63110;SDS011;49201;53.426;10.300;2023-05-07T00:46:32;13.33;;;10.40;;
63110;SDS011;49201;53.426;10.300;2023-05-07T00:48:57;12.30;;;11.00;;
63110;SDS011;49201;53.426;10.300;2023-05-07T00:51:25;12.37;;;10.47;;
63110;SDS011;49201;53.426;10.300;2023-05-07T00:53:52;16.10;;;11.03;;
63110;SDS011;49201;53.426;10.300;2023-05-07T00:56:19;12.23;;;10.37;;
63110;SDS011;49201;53.426;10.300;2023-05-07T00:58:46;11.30;;;10.10;;
63110;SDS011;49201;53.426;10.300;2023-05-07T01:01:12;12.60;;;10.60;;
63110;SDS011;49201;53.426;10.300;2023-05-07T01:03:37;10.10;;;9.10;;
63110;SDS011;49201;53.426;10.300;2023-05-07T01:06:03;11.47;;;9.40;;
63110;SDS011;49201;53.426;10.300;2023-05-07T01:08:31;10.37;;;8.90;;
63110;SDS011;49201;53.426;10.300;2023-05-07T01:10:57;10.97;;;8.87;;
63110;SDS011;49201;53.426;10.300;2023-05-07T01:13:24;11.00;;;8.83;;
63110;SDS011;49201;53.426;10.300;2023-05-07T01:15:50;10.73;;;9.30;;
63110;SDS011;49201;53.426;10.300;2023-05-07T01:18:15;9.90;;;8.90;;
63110;SDS011;49201;53.426;10.300;2023-05-07T01:20:42;9.80;;;8.77;;
63110;SDS011;49201;53.426;10.300;2023-05-07T01:23:07;9.20;;;8.20;;
63110;SDS011;49201;53.426;10.300;2023-05-07T01:25:35;9.57;;;8.57;;
63110;SDS011;49201;53.426;10.300;2023-05-07T01:28:01;9.23;;;8.17;;
63110;SDS011;49201;53.426;10.300;2023-05-07T01:30:30;9.63;;;8.63;;
63110;SDS011;49201;53.426;10.300;2023-05-07T01:32:58;10.10;;;9.00;;
63110;SDS011;49201;53.426;10.300;2023-05-07T01:35:30;11.17;;;9.63;;
63110;SDS011;49201;53.426;10.300;2023-05-07T01:38:01;11.03;;;9.43;;
63110;SDS011;49201;53.426;10.300;2023-05-07T01:40:29;10.63;;;9.30;;
63110;SDS011;49201;53.426;10.300;2023-05-07T01:42:55;10.77;;;9.67;;
63110;SDS011;49201;53.426;10.300;2023-05-07T01:45:21;10.40;;;9.30;;
63110;SDS011;49201;53.426;10.300;2023-05-07T01:47:48;11.17;;;9.97;;
63110;SDS011;49201;53.426;10.300;2023-05-07T01:50:14;13.50;;;10.67;;
63110;SDS011;49201;53.426;10.300;2023-05-07T01:52:42;12.70;;;10.60;;
63110;SDS011;49201;53.426;10.300;2023-05-07T01:55:08;11.37;;;10.17;;
63110;SDS011;49201;53.426;10.300;2023-05-07T01:57:33;12.40;;;10.97;;
63110;SDS011;49201;53.426;10.300;2023-05-07T01:59:59;13.00;;;10.87;;
63110;SDS011;49201;53.426;10.300;2023-05-07T02:02:24;13.20;;;11.00;;
63110;SDS011;49201;53.426;10.300;2023-05-07T02:04:52;13.57;;;10.73;;
63110;SDS011;49201;53.426;10.300;2023-05-07T02:07:18;13.07;;;10.93;;
63110;SDS011;49201;53.426;10.300;2023-05-07T02:09:44;13.40;;;11.27;;
63110;SDS011;49201;53.426;10.300;2023-05-07T02:12:10;12.80;;;10.53;;
63110;SDS011;49201;53.426;10.300;2023-05-07T02:14:35;13.90;;;10.87;;
63110;SDS011;49201;53.426;10.300;2023-05-07T02:17:00;14.50;;;11.10;;
63110;SDS011;49201;53.426;10.300;2023-05-07T02:19:26;15.03;;;10.90;;
63110;SDS011;49201;53.426;10.300;2023-05-07T02:21:51;13.40;;;10.50;;
63110;SDS011;49201;53.426;10.300;2023-05-07T02:24:18;14.43;;;11.43;;
63110;SDS011;49201;53.426;10.300;2023-05-07T02:26:44;15.50;;;11.03;;
63110;SDS011;49201;53.426;10.300;2023-05-07T02:29:10;14.37;;;11.00;;
63110;SDS011;49201;53.426;10.300;2023-05-07T02:31:37;13.50;;;11.20;;
63110;SDS011;49201;53.426;10.300;2023-05-07T02:34:02;14.37;;;11.53;;
63110;SDS011;49201;53.426;10.300;2023-05-07T02:36:28;13.33;;;11.20;;
63110;SDS011;49201;53.426;10.300;2023-05-07T02:39:05;16.90;;;13.17;;
63110;SDS011;49201;53.426;10.300;2023-05-07T02:41:31;16.60;;;11.97;;
63110;SDS011;49201;53.426;10.300;2023-05-07T02:43:57;16.50;;;12.77;;
63110;SDS011;49201;53.426;10.300;2023-05-07T02:46:22;16.87;;;12.43;;
63110;SDS011;49201;53.426;10.300;2023-05-07T02:48:56;16.13;;;11.90;;
63110;SDS011;49201;53.426;10.300;2023-05-07T02:51:22;16.77;;;12.27;;
63110;SDS011;49201;53.426;10.300;2023-05-07T02:53:48;13.50;;;11.90;;
63110;SDS011;49201;53.426;10.300;2023-05-07T02:56:14;13.37;;;11.57;;
63110;SDS011;49201;53.426;10.300;2023-05-07T02:58:40;13.53;;;11.73;;
63110;SDS011;49201;53.426;10.300;2023-05-07T03:01:08;13.07;;;11.33;;
63110;SDS011;49201;53.426;10.300;2023-05-07T03:03:38;14.63;;;11.57;;
63110;SDS011;49201;53.426;10.300;2023-05-07T03:06:03;14.90;;;11.53;;
63110;SDS011;49201;53.426;10.300;2023-05-07T03:08:29;13.10;;;11.43;;
63110;SDS011;49201;53.426;10.300;2023-05-07T03:10:55;13.73;;;10.77;;
63110;SDS011;49201;53.426;10.300;2023-05-07T03:13:20;13.17;;;11.00;;
63110;SDS011;49201;53.426;10.300;2023-05-07T03:15:46;14.20;;;11.33;;
63110;SDS011;49201;53.426;10.300;2023-05-07T03:18:12;14.83;;;11.00;;
63110;SDS011;49201;53.426;10.300;2023-05-07T03:20:37;12.50;;;10.87;;
63110;SDS011;49201;53.426;10.300;2023-05-07T03:23:03;13.50;;;11.03;;
63110;SDS011;49201;53.426;10.300;2023-05-07T03:25:28;12.67;;;10.87;;
63110;SDS011;49201;53.426;10.300;2023-05-07T03:27:55;14.70;;;11.30;;
63110;SDS011;49201;53.426;10.300;2023-05-07T03:30:24;12.07;;;10.03;;
63110;SDS011;49201;53.426;10.300;2023-05-07T03:32:50;12.87;;;10.70;;
63110;SDS011;49201;53.426;10.300;2023-05-07T03:35:15;13.47;;;11.37;;
63110;SDS011;49201;53.426;10.300;2023-05-07T03:37:41;13.27;;;11.37;;
63110;SDS011;49201;53.426;10.300;2023-05-07T03:40:08;12.77;;;10.83;;
63110;SDS011;49201;53.426;10.300;2023-05-07T03:42:42;14.07;;;12.00;;
63110;SDS011;49201;53.426;10.300;2023-05-07T03:45:08;16.57;;;12.10;;
63110;SDS011;49201;53.426;10.300;2023-05-07T03:47:34;14.53;;;11.23;;
63110;SDS011;49201;53.426;10.300;2023-05-07T03:50:00;12.97;;;11.10;;
63110;SDS011;49201;53.426;10.300;2023-05-07T03:52:25;13.17;;;10.50;;
63110;SDS011;49201;53.426;10.300;2023-05-07T03:54:53;13.47;;;10.37;;
63110;SDS011;49201;53.426;10.300;2023-05-07T03:57:19;11.97;;;10.03;;
63110;SDS011;49201;53.426;10.300;2023-05-07T03:59:45;14.87;;;11.63;;
63110;SDS011;49201;53.426;10.300;2023-05-07T04:02:11;13.53;;;11.30;;
63110;SDS011;49201;53.426;10.300;2023-05-07T04:04:36;14.10;;;12.03;;
63110;SDS011;49201;53.426;10.300;2023-05-07T04:07:02;14.10;;;11.50;;
63110;SDS011;49201;53.426;10.300;2023-05-07T04:09:29;13.73;;;10.90;;
63110;SDS011;49201;53.426;10.300;2023-05-07T04:11:56;12.87;;;11.33;;
63110;SDS011;49201;53.426;10.300;2023-05-07T04:14:21;11.13;;;9.93;;
63110;SDS011;49201;53.426;10.300;2023-05-07T04:16:47;13.60;;;10.43;;
63110;SDS011;49201;53.426;10.300;2023-05-07T04:19:13;14.20;;;11.07;;
63110;SDS011;49201;53.426;10.300;2023-05-07T04:21:38;12.30;;;11.00;;
63110;SDS011;49201;53.426;10.300;2023-05-07T04:24:04;12.83;;;10.80;;
63110;SDS011;49201;53.426;10.300;2023-05-07T04:26:30;13.77;;;10.77;;
63110;SDS011;49201;53.426;10.300;2023-05-07T04:28:56;13.17;;;10.50;;
63110;SDS011;49201;53.426;10.300;2023-05-07T04:31:25;12.33;;;10.57;;
63110;SDS011;49201;53.426;10.300;2023-05-07T04:33:53;14.53;;;10.90;;
63110;SDS011;49201;53.426;10.300;2023-05-07T04:36:19;11.00;;;9.90;;
63110;SDS011;49201;53.426;10.300;2023-05-07T04:38:50;13.33;;;10.40;;
63110;SDS011;49201;53.426;10.300;2023-05-07T04:41:17;12.17;;;10.47;;
63110;SDS011;49201;53.426;10.300;2023-05-07T04:43:42;12.17;;;9.93;;
63110;SDS011;49201;53.426;10.300;2023-05-07T04:46:09;13.73;;;10.20;;
63110;SDS011;49201;53.426;10.300;2023-05-07T04:48:35;12.17;;;10.07;;
63110;SDS011;49201;53.426;10.300;2023-05-07T04:51:03;11.93;;;10.03;;
63110;SDS011;49201;53.426;10.300;2023-05-07T04:53:29;11.33;;;9.47;;
63110;SDS011;49201;53.426;10.300;2023-05-07T04:55:56;12.97;;;9.67;;
63110;SDS011;49201;53.426;10.300;2023-05-07T04:58:23;11.97;;;9.77;;
63110;SDS011;49201;53.426;10.300;2023-05-07T05:00:49;11.87;;;10.07;;
63110;SDS011;49201;53.426;10.300;2023-05-07T05:03:14;11.73;;;9.77;;
63110;SDS011;49201;53.426;10.300;2023-05-07T05:05:40;11.77;;;10.27;;
63110;SDS011;49201;53.426;10.300;2023-05-07T05:08:06;18.10;;;10.70;;
63110;SDS011;49201;53.426;10.300;2023-05-07T05:10:34;12.13;;;10.13;;
63110;SDS011;49201;53.426;10.300;2023-05-07T05:13:00;11.97;;;10.13;;
63110;SDS011;49201;53.426;10.300;2023-05-07T05:15:26;11.00;;;9.43;;
63110;SDS011;49201;53.426;10.300;2023-05-07T05:17:51;11.70;;;9.80;;
63110;SDS011;49201;53.426;10.300;2023-05-07T05:20:17;11.57;;;9.90;;
63110;SDS011;49201;53.426;10.300;2023-05-07T05:22:43;12.03;;;9.80;;
63110;SDS011;49201;53.426;10.300;2023-05-07T05:25:09;11.03;;;9.83;;
63110;SDS011;49201;53.426;10.300;2023-05-07T05:27:34;12.33;;;10.20;;
63110;SDS011;49201;53.426;10.300;2023-05-07T05:30:01;11.53;;;10.23;;
63110;SDS011;49201;53.426;10.300;2023-05-07T05:32:27;11.53;;;10.30;;
63110;SDS011;49201;53.426;10.300;2023-05-07T05:34:55;12.40;;;10.10;;
63110;SDS011;49201;53.426;10.300;2023-05-07T05:37:21;12.87;;;9.83;;
63110;SDS011;49201;53.426;10.300;2023-05-07T05:39:47;12.00;;;10.40;;
63110;SDS011;49201;53.426;10.300;2023-05-07T05:42:13;13.43;;;9.80;;
63110;SDS011;49201;53.426;10.300;2023-05-07T05:44:39;12.97;;;9.90;;
63110;SDS011;49201;53.426;10.300;2023-05-07T05:47:04;11.43;;;10.30;;
63110;SDS011;49201;53.426;10.300;2023-05-07T05:49:30;13.50;;;11.17;;
63110;SDS011;49201;53.426;10.300;2023-05-07T05:51:56;11.63;;;9.93;;
63110;SDS011;49201;53.426;10.300;2023-05-07T05:54:24;11.60;;;10.37;;
63110;SDS011;49201;53.426;10.300;2023-05-07T05:56:49;12.23;;;10.03;;
63110;SDS011;49201;53.426;10.300;2023-05-07T05:59:15;12.50;;;10.70;;
63110;SDS011;49201;53.426;10.300;2023-05-07T06:01:41;12.67;;;10.97;;
63110;SDS011;49201;53.426;10.300;2023-05-07T06:04:06;13.37;;;10.40;;
63110;SDS011;49201;53.426;10.300;2023-05-07T06:06:32;12.30;;;10.73;;
63110;SDS011;49201;53.426;10.300;2023-05-07T06:08:59;13.60;;;10.00;;
63110;SDS011;49201;53.426;10.300;2023-05-07T06:11:32;13.07;;;10.33;;
63110;SDS011;49201;53.426;10.300;2023-05-07T06:13:57;12.77;;;9.93;;
63110;SDS011;49201;53.426;10.300;2023-05-07T06:16:24;12.43;;;10.50;;
63110;SDS011;49201;53.426;10.300;2023-05-07T06:18:50;12.80;;;9.50;;
63110;SDS011;49201;53.426;10.300;2023-05-07T06:21:16;13.53;;;9.77;;
63110;SDS011;49201;53.426;10.300;2023-05-07T06:23:41;11.23;;;8.80;;
63110;SDS011;49201;53.426;10.300;2023-05-07T06:26:07;12.37;;;10.00;;
63110;SDS011;49201;53.426;10.300;2023-05-07T06:28:37;12.27;;;9.10;;
63110;SDS011;49201;53.426;10.300;2023-05-07T06:31:17;11.60;;;9.07;;
63110;SDS011;49201;53.426;10.300;2023-05-07T06:33:57;10.07;;;8.30;;
63110;SDS011;49201;53.426;10.300;2023-05-07T06:36:30;13.80;;;8.90;;
63110;SDS011;49201;53.426;10.300;2023-05-07T06:38:57;9.50;;;8.43;;
63110;SDS011;49201;53.426;10.300;2023-05-07T06:41:23;9.13;;;7.60;;
63110;SDS011;49201;53.426;10.300;2023-05-07T06:43:48;10.60;;;8.03;;
63110;SDS011;49201;53.426;10.300;2023-05-07T06:46:29;9.70;;;8.40;;
63110;SDS011;49201;53.426;10.300;2023-05-07T06:48:55;9.43;;;8.53;;
63110;SDS011;49201;53.426;10.300;2023-05-07T06:51:21;9.80;;;7.80;;
63110;SDS011;49201;53.426;10.300;2023-05-07T06:53:47;8.70;;;7.23;;
63110;SDS011;49201;53.426;10.300;2023-05-07T06:56:13;10.20;;;8.23;;
63110;SDS011;49201;53.426;10.300;2023-05-07T06:58:39;8.80;;;7.90;;
63110;SDS011;49201;53.426;10.300;2023-05-07T07:01:06;10.00;;;7.77;;
63110;SDS011;49201;53.426;10.300;2023-05-07T07:03:32;11.50;;;8.83;;
63110;SDS011;49201;53.426;10.300;2023-05-07T07:05:58;9.03;;;8.13;;
63110;SDS011;49201;53.426;10.300;2023-05-07T07:08:24;12.53;;;8.27;;
63110;SDS011;49201;53.426;10.300;2023-05-07T07:10:50;9.27;;;8.23;;
63110;SDS011;49201;53.426;10.300;2023-05-07T07:13:16;9.73;;;8.73;;
63110;SDS011;49201;53.426;10.300;2023-05-07T07:15:42;10.60;;;7.90;;
63110;SDS011;49201;53.426;10.300;2023-05-07T07:18:08;9.40;;;7.90;;
63110;SDS011;49201;53.426;10.300;2023-05-07T07:20:33;9.77;;;8.73;;
63110;SDS011;49201;53.426;10.300;2023-05-07T07:22:59;10.10;;;7.60;;
63110;SDS011;49201;53.426;10.300;2023-05-07T07:25:25;9.00;;;7.83;;
63110;SDS011;49201;53.426;10.300;2023-05-07T07:27:51;11.33;;;8.00;;
63110;SDS011;49201;53.426;10.300;2023-05-07T07:30:16;9.87;;;7.47;;
63110;SDS011;49201;53.426;10.300;2023-05-07T07:32:45;7.80;;;7.00;;
63110;SDS011;49201;53.426;10.300;2023-05-07T07:35:11;8.17;;;7.37;;
63110;SDS011;49201;53.426;10.300;2023-05-07T07:37:37;9.53;;;8.10;;
63110;SDS011;49201;53.426;10.300;2023-05-07T07:40:03;8.67;;;7.50;;
63110;SDS011;49201;53.426;10.300;2023-05-07T07:42:29;9.10;;;7.57;;
63110;SDS011;49201;53.426;10.300;2023-05-07T07:44:55;10.30;;;7.20;;
63110;SDS011;49201;53.426;10.300;2023-05-07T07:47:24;8.67;;;7.47;;
63110;SDS011;49201;53.426;10.300;2023-05-07T07:49:51;8.67;;;6.57;;
63110;SDS011;49201;53.426;10.300;2023-05-07T07:52:17;8.97;;;7.30;;
63110;SDS011;49201;53.426;10.300;2023-05-07T07:54:44;9.73;;;7.60;;
63110;SDS011;49201;53.426;10.300;2023-05-07T07:57:10;8.00;;;7.07;;
63110;SDS011;49201;53.426;10.300;2023-05-07T07:59:36;8.90;;;7.00;;
63110;SDS011;49201;53.426;10.300;2023-05-07T08:02:01;8.43;;;7.40;;
63110;SDS011;49201;53.426;10.300;2023-05-07T08:04:28;7.63;;;6.87;;
63110;SDS011;49201;53.426;10.300;2023-05-07T08:06:57;8.37;;;7.57;;
63110;SDS011;49201;53.426;10.300;2023-05-07T08:09:23;9.07;;;7.50;;
63110;SDS011;49201;53.426;10.300;2023-05-07T08:11:49;10.37;;;8.93;;
63110;SDS011;49201;53.426;10.300;2023-05-07T08:14:15;9.90;;;8.43;;
63110;SDS011;49201;53.426;10.300;2023-05-07T08:16:42;9.47;;;8.33;;
63110;SDS011;49201;53.426;10.300;2023-05-07T08:19:07;9.67;;;8.33;;
63110;SDS011;49201;53.426;10.300;2023-05-07T08:21:34;10.17;;;8.20;;
63110;SDS011;49201;53.426;10.300;2023-05-07T08:24:00;8.83;;;7.63;;
63110;SDS011;49201;53.426;10.300;2023-05-07T08:26:25;8.53;;;7.70;;
63110;SDS011;49201;53.426;10.300;2023-05-07T08:28:51;11.10;;;8.53;;
63110;SDS011;49201;53.426;10.300;2023-05-07T08:31:16;12.87;;;9.30;;
63110;SDS011;49201;53.426;10.300;2023-05-07T08:33:43;17.47;;;9.63;;
63110;SDS011;49201;53.426;10.300;2023-05-07T08:36:09;9.77;;;7.90;;
63110;SDS011;49201;53.426;10.300;2023-05-07T08:38:36;8.90;;;7.37;;
63110;SDS011;49201;53.426;10.300;2023-05-07T08:41:01;9.17;;;8.17;;
63110;SDS011;49201;53.426;10.300;2023-05-07T08:43:29;8.43;;;7.53;;
63110;SDS011;49201;53.426;10.300;2023-05-07T08:45:58;8.93;;;8.03;;
63110;SDS011;49201;53.426;10.300;2023-05-07T08:48:30;9.97;;;7.50;;
63110;SDS011;49201;53.426;10.300;2023-05-07T08:51:06;7.37;;;6.67;;
63110;SDS011;49201;53.426;10.300;2023-05-07T08:53:31;7.40;;;6.70;;
63110;SDS011;49201;53.426;10.300;2023-05-07T08:55:58;7.13;;;6.50;;
63110;SDS011;49201;53.426;10.300;2023-05-07T08:58:24;7.13;;;6.43;;
63110;SDS011;49201;53.426;10.300;2023-05-07T09:00:50;8.17;;;6.77;;
63110;SDS011;49201;53.426;10.300;2023-05-07T09:03:18;7.63;;;6.83;;
63110;SDS011;49201;53.426;10.300;2023-05-07T09:05:47;6.97;;;6.27;;
63110;SDS011;49201;53.426;10.300;2023-05-07T09:08:15;7.93;;;7.13;;
63110;SDS011;49201;53.426;10.300;2023-05-07T09:10:42;9.43;;;6.60;;
63110;SDS011;49201;53.426;10.300;2023-05-07T09:13:08;8.27;;;7.43;;
63110;SDS011;49201;53.426;10.300;2023-05-07T09:15:35;8.43;;;7.10;;
63110;SDS011;49201;53.426;10.300;2023-05-07T09:18:01;10.27;;;7.03;;
63110;SDS011;49201;53.426;10.300;2023-05-07T09:20:30;8.43;;;6.77;;
63110;SDS011;49201;53.426;10.300;2023-05-07T09:22:55;7.90;;;7.17;;
63110;SDS011;49201;53.426;10.300;2023-05-07T09:25:29;8.77;;;7.53;;
63110;SDS011;49201;53.426;10.300;2023-05-07T09:27:57;8.67;;;7.20;;
63110;SDS011;49201;53.426;10.300;2023-05-07T09:30:26;7.83;;;7.07;;
63110;SDS011;49201;53.426;10.300;2023-05-07T09:32:53;8.67;;;7.13;;
63110;SDS011;49201;53.426;10.300;2023-05-07T09:35:21;8.10;;;7.30;;
63110;SDS011;49201;53.426;10.300;2023-05-07T09:37:58;7.63;;;6.73;;
63110;SDS011;49201;53.426;10.300;2023-05-07T09:40:26;7.73;;;6.83;;
63110;SDS011;49201;53.426;10.300;2023-05-07T09:42:54;7.60;;;6.90;;
63110;SDS011;49201;53.426;10.300;2023-05-07T09:45:25;8.83;;;7.40;;
63110;SDS011;49201;53.426;10.300;2023-05-07T09:47:54;8.13;;;7.00;;
63110;SDS011;49201;53.426;10.300;2023-05-07T09:50:28;7.87;;;6.70;;
63110;SDS011;49201;53.426;10.300;2023-05-07T09:52:55;6.97;;;6.30;;
63110;SDS011;49201;53.426;10.300;2023-05-07T09:55:23;7.57;;;6.77;;
63110;SDS011;49201;53.426;10.300;2023-05-07T09:57:50;7.27;;;6.57;;
63110;SDS011;49201;53.426;10.300;2023-05-07T10:00:18;10.17;;;6.47;;
63110;SDS011;49201;53.426;10.300;2023-05-07T10:02:48;7.33;;;6.60;;
63110;SDS011;49201;53.426;10.300;2023-05-07T10:05:21;7.00;;;6.30;;
63110;SDS011;49201;53.426;10.300;2023-05-07T10:07:48;7.33;;;5.83;;
63110;SDS011;49201;53.426;10.300;2023-05-07T10:10:16;7.33;;;6.63;;
63110;SDS011;49201;53.426;10.300;2023-05-07T10:12:44;7.70;;;6.13;;
63110;SDS011;49201;53.426;10.300;2023-05-07T10:15:16;6.47;;;5.80;;
63110;SDS011;49201;53.426;10.300;2023-05-07T10:17:46;7.23;;;5.93;;
63110;SDS011;49201;53.426;10.300;2023-05-07T10:20:14;6.33;;;5.63;;
63110;SDS011;49201;53.426;10.300;2023-05-07T10:22:43;6.93;;;6.10;;
63110;SDS011;49201;53.426;10.300;2023-05-07T10:25:20;8.20;;;6.27;;
63110;SDS011;49201;53.426;10.300;2023-05-07T10:27:49;6.33;;;5.73;;
63110;SDS011;49201;53.426;10.300;2023-05-07T10:33:36;7.53;;;5.90;;
63110;SDS011;49201;53.426;10.300;2023-05-07T10:36:03;6.80;;;6.10;;
63110;SDS011;49201;53.426;10.300;2023-05-07T10:38:31;6.50;;;5.77;;
63110;SDS011;49201;53.426;10.300;2023-05-07T10:40:58;7.80;;;6.20;;
63110;SDS011;49201;53.426;10.300;2023-05-07T10:43:24;5.97;;;5.40;;
63110;SDS011;49201;53.426;10.300;2023-05-07T10:46:09;6.80;;;6.10;;
63110;SDS011;49201;53.426;10.300;2023-05-07T10:51:35;7.27;;;6.23;;
63110;SDS011;49201;53.426;10.300;2023-05-07T10:56:43;7.00;;;6.07;;
63110;SDS011;49201;53.426;10.300;2023-05-07T11:02:02;6.50;;;5.50;;
63110;SDS011;49201;53.426;10.300;2023-05-07T11:04:40;5.60;;;5.07;;
63110;SDS011;49201;53.426;10.300;2023-05-07T11:07:27;5.23;;;4.73;;
63110;SDS011;49201;53.426;10.300;2023-05-07T11:09:59;7.23;;;5.40;;
63110;SDS011;49201;53.426;10.300;2023-05-07T11:12:55;5.17;;;4.67;;
63110;SDS011;49201;53.426;10.300;2023-05-07T11:15:34;5.17;;;4.77;;
63110;SDS011;49201;53.426;10.300;2023-05-07T11:18:04;5.90;;;5.30;;
63110;SDS011;49201;53.426;10.300;2023-05-07T11:26:26;5.37;;;4.73;;
63110;SDS011;49201;53.426;10.300;2023-05-07T11:28:53;4.70;;;4.30;;
63110;SDS011;49201;53.426;10.300;2023-05-07T11:31:23;5.70;;;4.10;;
63110;SDS011;49201;53.426;10.300;2023-05-07T11:33:51;4.07;;;3.77;;
63110;SDS011;49201;53.426;10.300;2023-05-07T11:36:20;4.37;;;3.97;;
63110;SDS011;49201;53.426;10.300;2023-05-07T11:38:49;4.67;;;4.27;;
63110;SDS011;49201;53.426;10.300;2023-05-07T11:41:15;4.93;;;4.43;;
63110;SDS011;49201;53.426;10.300;2023-05-07T11:43:57;4.17;;;3.80;;
63110;SDS011;49201;53.426;10.300;2023-05-07T11:46:23;4.50;;;3.77;;
63110;SDS011;49201;53.426;10.300;2023-05-07T11:48:49;4.60;;;3.80;;
63110;SDS011;49201;53.426;10.300;2023-05-07T11:51:18;4.27;;;3.87;;
63110;SDS011;49201;53.426;10.300;2023-05-07T11:53:53;4.27;;;3.83;;
63110;SDS011;49201;53.426;10.300;2023-05-07T11:56:18;3.77;;;3.47;;
63110;SDS011;49201;53.426;10.300;2023-05-07T11:58:45;3.57;;;3.23;;
63110;SDS011;49201;53.426;10.300;2023-05-07T12:01:12;3.70;;;3.27;;
63110;SDS011;49201;53.426;10.300;2023-05-07T12:03:42;4.27;;;3.80;;
63110;SDS011;49201;53.426;10.300;2023-05-07T12:06:11;4.57;;;3.70;;
63110;SDS011;49201;53.426;10.300;2023-05-07T12:08:38;3.57;;;3.27;;
63110;SDS011;49201;53.426;10.300;2023-05-07T12:11:08;3.73;;;3.43;;
63110;SDS011;49201;53.426;10.300;2023-05-07T12:13:37;3.13;;;2.90;;
63110;SDS011;49201;53.426;10.300;2023-05-07T12:16:03;3.37;;;3.07;;
63110;SDS011;49201;53.426;10.300;2023-05-07T12:18:30;5.90;;;3.47;;
63110;SDS011;49201;53.426;10.300;2023-05-07T12:20:56;5.03;;;3.17;;
63110;SDS011;49201;53.426;10.300;2023-05-07T12:23:22;3.83;;;3.43;;
63110;SDS011;49201;53.426;10.300;2023-05-07T12:25:48;3.87;;;3.37;;
63110;SDS011;49201;53.426;10.300;2023-05-07T12:28:14;3.93;;;3.27;;
63110;SDS011;49201;53.426;10.300;2023-05-07T12:30:42;3.13;;;2.90;;
63110;SDS011;49201;53.426;10.300;2023-05-07T12:33:08;3.40;;;3.10;;
63110;SDS011;49201;53.426;10.300;2023-05-07T12:35:39;3.73;;;3.43;;
63110;SDS011;49201;53.426;10.300;2023-05-07T12:38:09;3.60;;;3.30;;
63110;SDS011;49201;53.426;10.300;2023-05-07T12:40:39;3.63;;;3.00;;
63110;SDS011;49201;53.426;10.300;2023-05-07T12:43:04;3.70;;;3.40;;
63110;SDS011;49201;53.426;10.300;2023-05-07T12:45:30;4.27;;;3.57;;
63110;SDS011;49201;53.426;10.300;2023-05-07T12:47:55;3.40;;;3.10;;
63110;SDS011;49201;53.426;10.300;2023-05-07T12:50:21;3.70;;;3.40;;
63110;SDS011;49201;53.426;10.300;2023-05-07T12:52:48;3.40;;;3.07;;
63110;SDS011;49201;53.426;10.300;2023-05-07T12:55:14;3.33;;;3.03;;
63110;SDS011;49201;53.426;10.300;2023-05-07T12:57:49;3.20;;;2.80;;
63110;SDS011;49201;53.426;10.300;2023-05-07T13:00:16;3.20;;;2.90;;
63110;SDS011;49201;53.426;10.300;2023-05-07T13:02:43;3.80;;;2.97;;
63110;SDS011;49201;53.426;10.300;2023-05-07T13:05:11;3.50;;;2.83;;
63110;SDS011;49201;53.426;10.300;2023-05-07T13:07:37;3.10;;;2.80;;
63110;SDS011;49201;53.426;10.300;2023-05-07T13:10:03;2.67;;;2.47;;
63110;SDS011;49201;53.426;10.300;2023-05-07T13:12:29;2.90;;;2.60;;
63110;SDS011;49201;53.426;10.300;2023-05-07T13:14:54;3.13;;;2.40;;
63110;SDS011;49201;53.426;10.300;2023-05-07T13:17:20;2.90;;;2.50;;
63110;SDS011;49201;53.426;10.300;2023-05-07T13:19:46;2.80;;;2.43;;
63110;SDS011;49201;53.426;10.300;2023-05-07T13:22:11;3.00;;;2.60;;
63110;SDS011;49201;53.426;10.300;2023-05-07T13:24:36;3.60;;;2.60;;
63110;SDS011;49201;53.426;10.300;2023-05-07T13:27:02;2.67;;;2.47;;
63110;SDS011;49201;53.426;10.300;2023-05-07T13:29:28;2.80;;;2.60;;
63110;SDS011;49201;53.426;10.300;2023-05-07T13:31:58;2.60;;;2.40;;
63110;SDS011;49201;53.426;10.300;2023-05-07T13:34:24;2.83;;;2.30;;
63110;SDS011;49201;53.426;10.300;2023-05-07T13:36:49;2.27;;;2.07;;
63110;SDS011;49201;53.426;10.300;2023-05-07T13:39:15;2.57;;;2.07;;
63110;SDS011;49201;53.426;10.300;2023-05-07T13:41:41;3.10;;;2.23;;
63110;SDS011;49201;53.426;10.300;2023-05-07T13:44:06;2.40;;;2.20;;
63110;SDS011;49201;53.426;10.300;2023-05-07T13:46:31;2.50;;;2.30;;
63110;SDS011;49201;53.426;10.300;2023-05-07T13:48:57;2.67;;;2.20;;
63110;SDS011;49201;53.426;10.300;2023-05-07T13:51:23;4.43;;;2.30;;
63110;SDS011;49201;53.426;10.300;2023-05-07T13:53:48;2.30;;;2.10;;
63110;SDS011;49201;53.426;10.300;2023-05-07T13:56:14;2.03;;;1.87;;
63110;SDS011;49201;53.426;10.300;2023-05-07T13:58:40;3.20;;;2.07;;
63110;SDS011;49201;53.426;10.300;2023-05-07T14:01:05;2.30;;;2.10;;
63110;SDS011;49201;53.426;10.300;2023-05-07T14:03:31;3.27;;;2.33;;
63110;SDS011;49201;53.426;10.300;2023-05-07T14:05:58;2.23;;;2.03;;
63110;SDS011;49201;53.426;10.300;2023-05-07T14:08:26;2.80;;;2.20;;
63110;SDS011;49201;53.426;10.300;2023-05-07T14:10:52;2.97;;;2.13;;
63110;SDS011;49201;53.426;10.300;2023-05-07T14:13:17;2.40;;;2.20;;
63110;SDS011;49201;53.426;10.300;2023-05-07T14:15:43;2.20;;;2.00;;
63110;SDS011;49201;53.426;10.300;2023-05-07T14:18:13;2.43;;;1.90;;
63110;SDS011;49201;53.426;10.300;2023-05-07T14:20:39;3.33;;;2.17;;
63110;SDS011;49201;53.426;10.300;2023-05-07T14:23:04;2.90;;;2.40;;
63110;SDS011;49201;53.426;10.300;2023-05-07T14:25:30;2.57;;;2.37;;
63110;SDS011;49201;53.426;10.300;2023-05-07T14:27:55;2.20;;;2.10;;
63110;SDS011;49201;53.426;10.300;2023-05-07T14:30:21;2.93;;;2.37;;
63110;SDS011;49201;53.426;10.300;2023-05-07T14:32:49;2.30;;;2.10;;
63110;SDS011;49201;53.426;10.300;2023-05-07T14:35:15;2.67;;;2.47;;
63110;SDS011;49201;53.426;10.300;2023-05-07T14:37:41;2.67;;;2.47;;
63110;SDS011;49201;53.426;10.300;2023-05-07T14:40:06;4.77;;;2.40;;